Time;durP1;ratioP1;P1;durP2;ratioP2;P2;SDS_P1;SDS_P2;PMS_P1;PMS_P2;Temp;Humidity;BMP_temperature;BMP_pressure;BME280_temperature;BME280_humidity;BME280_pressure;Samples;Min_cycle;Max_cycle;Signal;HPM_P1;HPM_P2
2021/03/01 00:02:22;;;;;;;16.90;7.57;;;5.40;96.00;;;;;;5045256;28;20037;-76
2021/03/01 00:04:48;;;;;;;14.75;7.60;;;5.40;96.00;;;;;;5043674;28;20037;-79
2021/03/01 00:07:13;;;;;;;15.20;7.32;;;5.30;96.00;;;;;;5042611;28;20047;-78
2021/03/01 00:09:39;;;;;;;15.13;7.47;;;5.30;96.10;;;;;;5042579;28;20044;-77
2021/03/01 00:12:05;;;;;;;15.40;7.70;;;5.20;96.30;;;;;;5037850;28;20045;-77
2021/03/01 00:14:30;;;;;;;15.35;7.78;;;5.20;96.50;;;;;;5028450;28;20060;-78
2021/03/01 00:16:56;;;;;;;17.50;8.02;;;5.60;96.70;;;;;;5040423;28;20029;-78
2021/03/01 00:19:22;;;;;;;15.88;8.85;;;5.10;96.70;;;;;;5041205;28;20112;-77
2021/03/01 00:21:48;;;;;;;17.42;8.48;;;5.10;96.80;;;;;;5041235;28;20029;-78
2021/03/01 00:24:13;;;;;;;19.63;8.48;;;5.00;96.80;;;;;;5045895;28;20096;-76
2021/03/01 00:26:39;;;;;;;16.90;8.13;;;5.00;96.90;;;;;;5053672;28;20049;-79
2021/03/01 00:29:05;;;;;;;15.45;7.60;;;5.00;97.00;;;;;;5043202;28;20038;-78
2021/03/01 00:31:30;;;;;;;17.90;8.93;;;4.90;97.00;;;;;;5052251;28;20036;-78
2021/03/01 00:33:56;;;;;;;16.42;8.80;;;5.00;97.10;;;;;;5047690;28;20498;-78
2021/03/01 00:36:21;;;;;;;16.90;8.20;;;4.90;97.10;;;;;;5037432;28;20041;-78
2021/03/01 00:38:47;;;;;;;16.08;8.43;;;4.90;97.20;;;;;;5039778;28;20394;-78
2021/03/01 00:41:13;;;;;;;17.90;8.75;;;4.90;97.20;;;;;;5041782;28;20049;-79
2021/03/01 00:43:41;;;;;;;19.63;8.48;;;4.90;97.10;;;;;;5036728;28;20045;-76
2021/03/01 00:46:07;;;;;;;16.27;7.78;;;4.90;97.00;;;;;;5038374;28;20041;-79
2021/03/01 00:48:32;;;;;;;15.00;7.47;;;4.90;97.20;;;;;;5039574;28;20045;-79
2021/03/01 00:50:58;;;;;;;14.80;7.80;;;4.90;97.10;;;;;;5038866;28;20240;-77
2021/03/01 00:53:29;;;;;;;14.60;7.15;;;4.90;97.00;;;;;;5025075;28;20041;-78
2021/03/01 00:55:55;;;;;;;16.02;7.95;;;4.90;96.90;;;;;;5039741;28;20056;-77
2021/03/01 00:58:21;;;;;;;17.13;7.80;;;5.00;96.70;;;;;;5040975;28;20032;-80
2021/03/01 01:00:49;;;;;;;17.73;7.97;;;5.00;96.70;;;;;;5033709;28;20033;-78
2021/03/01 01:03:16;;;;;;;17.90;7.30;;;4.90;96.60;;;;;;5040313;28;20033;-78
2021/03/01 01:05:42;;;;;;;15.27;7.43;;;5.00;96.50;;;;;;5038038;28;20032;-77
2021/03/01 01:08:08;;;;;;;14.68;8.02;;;4.90;96.50;;;;;;5039209;28;20033;-78
2021/03/01 01:10:34;;;;;;;16.45;7.53;;;4.90;96.30;;;;;;5033660;28;20056;-77
2021/03/01 01:13:00;;;;;;;14.00;6.88;;;4.90;96.50;;;;;;5039015;28;20033;-76
2021/03/01 01:15:26;;;;;;;15.80;7.95;;;4.90;96.60;;;;;;5053821;28;20056;-77
2021/03/01 01:17:54;;;;;;;16.70;7.70;;;4.80;96.60;;;;;;5041035;28;20402;-77
2021/03/01 01:20:20;;;;;;;16.02;7.93;;;4.80;96.50;;;;;;5043729;28;20121;-78
2021/03/01 01:22:46;;;;;;;16.20;7.72;;;4.80;96.70;;;;;;5037185;28;20132;-75
2021/03/01 01:25:14;;;;;;;18.70;9.32;;;4.80;96.70;;;;;;5037483;28;20086;-77
2021/03/01 01:27:39;;;;;;;23.02;9.68;;;4.70;96.90;;;;;;5038690;28;20151;-76
2021/03/01 01:30:08;;;;;;;17.88;8.18;;;4.70;96.90;;;;;;5023188;28;20654;-79
2021/03/01 01:32:35;;;;;;;16.10;7.80;;;4.60;97.00;;;;;;5045090;28;20124;-77
2021/03/01 01:35:03;;;;;;;20.20;8.88;;;4.60;97.00;;;;;;5034312;28;20027;-76
2021/03/01 01:37:29;;;;;;;15.25;7.68;;;4.60;97.00;;;;;;5027322;28;20107;-75
2021/03/01 01:39:57;;;;;;;14.25;6.97;;;4.60;97.00;;;;;;5037188;28;20076;-77
2021/03/01 01:42:23;;;;;;;15.25;6.88;;;4.50;97.00;;;;;;5035011;28;20052;-77
2021/03/01 01:44:48;;;;;;;15.93;7.93;;;4.50;97.00;;;;;;5040093;28;20756;-78
2021/03/01 01:47:14;;;;;;;16.65;7.32;;;4.50;97.00;;;;;;5042058;28;20402;-78
2021/03/01 01:49:40;;;;;;;16.83;8.05;;;4.50;97.20;;;;;;5041847;28;20510;-79
2021/03/01 01:52:06;;;;;;;17.40;7.78;;;4.40;97.20;;;;;;5052621;28;20041;-78
2021/03/01 01:54:32;;;;;;;16.08;7.53;;;4.40;97.20;;;;;;5043164;28;20049;-79
2021/03/01 01:56:58;;;;;;;15.30;7.50;;;4.40;97.10;;;;;;5039274;28;20047;-76
2021/03/01 01:59:25;;;;;;;15.48;7.97;;;4.40;97.20;;;;;;5035852;28;20033;-78
2021/03/01 02:01:52;;;;;;;18.55;7.35;;;4.40;97.30;;;;;;5039825;28;20024;-76
2021/03/01 02:04:31;;;;;;;15.55;7.85;;;4.40;97.20;;;;;;5040310;28;20039;-76
2021/03/01 02:06:56;;;;;;;14.20;7.15;;;4.40;97.20;;;;;;5044401;28;20033;-77
2021/03/01 02:09:31;;;;;;;14.85;7.30;;;4.30;97.10;;;;;;5041985;28;20055;-77
2021/03/01 02:12:14;;;;;;;18.23;7.50;;;4.30;97.10;;;;;;5050970;28;20057;-77
2021/03/01 02:15:00;;;;;;;16.25;7.82;;;4.30;97.20;;;;;;5039299;28;20555;-77
2021/03/01 02:17:26;;;;;;;14.38;7.05;;;4.30;97.30;;;;;;5039159;28;20041;-75
2021/03/01 02:19:51;;;;;;;14.88;6.88;;;4.30;97.30;;;;;;5036836;28;20059;-77
2021/03/01 02:22:17;;;;;;;14.77;6.63;;;4.30;97.10;;;;;;5044605;28;20169;-76
2021/03/01 02:24:58;;;;;;;14.48;6.90;;;4.30;97.00;;;;;;5041028;28;20033;-76
2021/03/01 02:27:32;;;;;;;;;;;4.40;97.00;;;;;;5038144;28;20083;-76
2021/03/01 02:30:21;;;;;;;14.68;6.55;;;4.30;97.00;;;;;;5038347;28;19916;-76
2021/03/01 02:32:49;;;;;;;15.95;7.22;;;4.30;97.00;;;;;;5040871;28;20033;-77
2021/03/01 02:35:16;;;;;;;13.73;6.07;;;4.30;97.10;;;;;;5039659;28;20052;-76
2021/03/01 02:37:42;;;;;;;14.68;7.53;;;4.30;97.10;;;;;;5042553;28;20078;-77
2021/03/01 02:40:10;;;;;;;14.80;7.38;;;4.20;97.00;;;;;;5055540;28;20044;-77
2021/03/01 02:42:38;;;;;;;14.32;7.05;;;4.30;97.00;;;;;;5026060;28;20045;-77
2021/03/01 02:45:05;;;;;;;14.02;6.57;;;4.30;97.00;;;;;;5044505;28;20055;-77
2021/03/01 02:47:33;;;;;;;13.90;6.88;;;4.30;96.90;;;;;;5044067;28;20048;-76
2021/03/01 02:50:00;;;;;;;16.10;6.63;;;4.30;96.90;;;;;;5038459;28;20130;-75
2021/03/01 02:52:28;;;;;;;15.90;7.80;;;4.30;96.90;;;;;;5025043;28;20049;-77
2021/03/01 02:54:56;;;;;;;16.40;7.80;;;4.30;97.00;;;;;;5047645;28;20033;-76
2021/03/01 02:57:23;;;;;;;15.15;7.15;;;4.30;96.70;;;;;;5041549;28;20044;-77
2021/03/01 02:59:50;;;;;;;14.25;6.60;;;4.30;96.70;;;;;;5022968;28;20458;-76
2021/03/01 03:02:17;;;;;;;17.33;7.97;;;4.30;96.60;;;;;;5040773;28;20033;-75
2021/03/01 03:04:45;;;;;;;15.55;6.97;;;4.30;96.40;;;;;;5041354;28;20455;-76
2021/03/01 03:07:11;;;;;;;13.70;7.03;;;4.30;96.40;;;;;;5034874;28;20037;-77
2021/03/01 03:09:38;;;;;;;14.00;7.13;;;4.30;96.40;;;;;;5037437;28;20048;-77
2021/03/01 03:12:05;;;;;;;14.00;6.88;;;4.20;96.50;;;;;;5043102;28;20068;-77
2021/03/01 03:14:34;;;;;;;16.58;7.47;;;4.20;96.50;;;;;;5043977;28;20032;-76
2021/03/01 03:17:02;;;;;;;15.82;7.22;;;4.20;96.50;;;;;;5043727;28;20067;-78
2021/03/01 03:19:28;;;;;;;15.82;7.63;;;4.20;96.60;;;;;;5043671;28;20033;-77
2021/03/01 03:21:53;;;;;;;15.55;7.70;;;4.20;96.30;;;;;;5040913;28;20494;-76
2021/03/01 03:24:19;;;;;;;17.55;7.28;;;4.20;96.30;;;;;;5044096;28;20517;-76
2021/03/01 03:26:45;;;;;;;14.23;6.93;;;4.20;96.50;;;;;;5043339;28;20411;-76
2021/03/01 03:29:12;;;;;;;15.18;7.50;;;4.10;96.50;;;;;;5045472;28;20037;-76
2021/03/01 03:31:38;;;;;;;16.95;7.95;;;4.20;96.50;;;;;;5044191;28;20504;-76
2021/03/01 03:34:04;;;;;;;14.75;7.15;;;4.10;96.40;;;;;;5041722;28;20124;-77
2021/03/01 03:36:35;;;;;;;14.73;7.10;;;4.10;96.50;;;;;;5042070;28;20132;-77
2021/03/01 03:39:07;;;;;;;15.10;7.28;;;4.00;96.60;;;;;;5043510;28;20030;-77
2021/03/01 03:41:34;;;;;;;18.35;7.53;;;4.10;96.60;;;;;;5045613;28;20157;-75
2021/03/01 03:44:03;;;;;;;14.65;6.95;;;4.00;96.60;;;;;;5045971;28;20044;-76
2021/03/01 03:46:31;;;;;;;16.83;7.15;;;4.00;96.60;;;;;;5042007;28;20033;-76
2021/03/01 03:48:58;;;;;;;16.63;7.22;;;4.00;96.80;;;;;;5045776;28;20033;-76
2021/03/01 03:51:27;;;;;;;16.45;7.72;;;4.20;96.90;;;;;;5039928;28;20032;-76
2021/03/01 03:54:00;;;;;;;14.02;6.72;;;4.10;96.70;;;;;;5043200;28;20118;-76
2021/03/01 03:56:31;;;;;;;17.45;7.47;;;4.10;96.50;;;;;;5042493;28;20070;-76
2021/03/01 03:59:04;;;;;;;13.63;7.07;;;4.20;96.70;;;;;;5040743;28;20068;-75
2021/03/01 04:01:34;;;;;;;13.82;6.82;;;4.20;96.50;;;;;;5040300;28;20067;-76
2021/03/01 04:04:04;;;;;;;14.50;6.97;;;4.20;96.40;;;;;;5043278;28;20041;-78
2021/03/01 04:06:32;;;;;;;13.50;7.03;;;4.20;96.80;;;;;;5039385;28;20284;-77
2021/03/01 04:08:59;;;;;;;14.68;6.85;;;4.20;96.50;;;;;;5040789;28;20037;-76
2021/03/01 04:11:27;;;;;;;15.98;7.75;;;4.20;96.30;;;;;;5039505;28;20036;-76
2021/03/01 04:13:55;;;;;;;13.35;7.15;;;2.90;96.10;;;;;;5045341;28;20375;-76
2021/03/01 04:16:22;;;;;;;16.30;7.50;;;4.20;96.60;;;;;;5040913;28;20025;-77
2021/03/01 04:18:53;;;;;;;14.68;6.85;;;4.20;96.30;;;;;;5043113;28;20049;-77
2021/03/01 04:21:21;;;;;;;15.35;7.35;;;4.20;96.60;;;;;;5040946;28;20041;-79
2021/03/01 04:23:49;;;;;;;15.73;8.00;;;4.20;96.70;;;;;;5044256;28;20025;-76
2021/03/01 04:26:15;;;;;;;14.93;7.25;;;4.20;96.60;;;;;;5058976;28;20072;-77
2021/03/01 04:28:42;;;;;;;14.73;7.20;;;4.30;96.70;;;;;;5042821;28;20031;-77
2021/03/01 04:31:10;;;;;;;16.50;7.40;;;4.40;96.70;;;;;;5046812;28;20032;-77
2021/03/01 04:33:37;;;;;;;14.23;6.55;;;4.30;96.30;;;;;;5054474;28;20040;-76
2021/03/01 04:36:04;;;;;;;14.60;6.93;;;4.30;96.70;;;;;;5045827;28;20071;-78
2021/03/01 04:38:33;;;;;;;15.45;7.10;;;4.30;96.70;;;;;;5046503;28;20209;-77
2021/03/01 04:41:00;;;;;;;14.13;6.55;;;4.20;96.90;;;;;;5042198;28;20470;-77
2021/03/01 04:43:27;;;;;;;12.35;6.53;;;4.20;97.10;;;;;;5041241;28;20029;-77
2021/03/01 04:45:54;;;;;;;14.05;6.78;;;5.00;97.30;;;;;;5042580;28;20036;-78
2021/03/01 04:48:25;;;;;;;16.30;7.15;;;4.30;96.80;;;;;;5042762;28;20041;-77
2021/03/01 04:50:52;;;;;;;18.38;8.45;;;4.30;96.90;;;;;;5036181;28;20044;-78
2021/03/01 04:53:19;;;;;;;15.13;7.50;;;4.30;97.10;;;;;;5046966;28;20039;-76
2021/03/01 04:55:46;;;;;;;14.63;7.43;;;4.20;97.20;;;;;;5041953;28;20124;-77
2021/03/01 04:58:15;;;;;;;13.48;7.35;;;4.30;97.10;;;;;;5045331;28;20033;-76
2021/03/01 05:00:43;;;;;;;18.15;7.78;;;4.40;96.70;;;;;;5038368;28;20032;-77
2021/03/01 05:03:09;;;;;;;13.43;7.05;;;4.40;96.90;;;;;;5042123;28;20525;-77
2021/03/01 05:05:35;;;;;;;17.30;7.95;;;4.30;97.20;;;;;;5044343;28;20033;-77
2021/03/01 05:08:10;;;;;;;16.80;8.15;;;4.00;97.30;;;;;;5042206;28;20037;-77
2021/03/01 05:10:36;;;;;;;14.88;7.07;;;4.30;97.30;;;;;;5043033;28;20044;-77
2021/03/01 05:13:02;;;;;;;15.18;7.53;;;4.30;97.60;;;;;;5028645;28;20465;-77
2021/03/01 05:15:27;;;;;;;34.22;11.93;;;4.30;97.50;;;;;;5040341;28;20816;-76
2021/03/01 05:17:53;;;;;;;15.63;7.47;;;4.20;97.60;;;;;;5041160;28;20045;-75
2021/03/01 05:20:19;;;;;;;16.70;7.68;;;4.20;97.60;;;;;;5041285;28;20090;-77
2021/03/01 05:22:44;;;;;;;17.42;8.73;;;4.20;97.70;;;;;;5041500;28;20083;-77
2021/03/01 05:25:10;;;;;;;18.40;8.57;;;4.20;97.90;;;;;;5039515;28;20660;-76
2021/03/01 05:27:36;;;;;;;18.45;8.82;;;4.10;98.00;;;;;;5040117;28;20067;-77
2021/03/01 05:30:06;;;;;;;16.27;8.50;;;4.10;98.10;;;;;;5043044;28;20519;-78
2021/03/01 05:32:31;;;;;;;17.75;7.93;;;4.10;98.20;;;;;;5039740;28;20029;-76
2021/03/01 05:34:57;;;;;;;17.60;7.93;;;4.10;98.00;;;;;;5040599;28;20099;-79
2021/03/01 05:37:23;;;;;;;17.65;7.80;;;4.10;98.30;;;;;;5020853;28;20044;-76
2021/03/01 05:39:49;;;;;;;18.63;8.50;;;4.10;98.30;;;;;;5038565;28;20036;-76
2021/03/01 05:42:18;;;;;;;16.42;8.07;;;4.20;98.40;;;;;;5040059;28;20128;-77
2021/03/01 05:44:44;;;;;;;17.90;7.60;;;4.10;98.50;;;;;;5053680;28;20545;-76
2021/03/01 05:47:11;;;;;;;15.85;8.25;;;4.20;98.50;;;;;;5041277;28;20040;-77
2021/03/01 05:49:41;;;;;;;15.85;7.60;;;4.20;98.50;;;;;;5043823;28;20151;-77
2021/03/01 05:52:09;;;;;;;18.27;8.63;;;4.10;98.50;;;;;;5041804;28;20045;-77
2021/03/01 05:54:36;;;;;;;17.52;8.10;;;4.10;98.70;;;;;;5038019;28;20047;-78
2021/03/01 05:57:06;;;;;;;16.42;8.07;;;4.00;98.90;;;;;;5033142;28;20045;-78
2021/03/01 05:59:33;;;;;;;18.20;8.83;;;4.00;99.10;;;;;;5048974;28;20072;-78
2021/03/01 06:01:59;;;;;;;14.73;7.88;;;4.00;99.20;;;;;;5041648;28;20280;-76
2021/03/01 06:04:26;;;;;;;17.80;8.10;;;4.00;99.40;;;;;;5051339;28;20043;-76
2021/03/01 06:06:52;;;;;;;15.50;7.93;;;4.10;99.10;;;;;;5044702;28;20570;-77
2021/03/01 06:09:18;;;;;;;19.33;9.13;;;4.10;99.10;;;;;;5049462;28;20065;-78
2021/03/01 06:11:46;;;;;;;18.00;8.48;;;4.10;99.00;;;;;;5046805;28;20033;-77
2021/03/01 06:14:12;;;;;;;17.58;8.65;;;4.20;99.20;;;;;;5048488;28;20584;-75
2021/03/01 06:17:16;;;;;;;16.58;8.23;;;4.10;99.00;;;;;;5045750;28;20495;-77
2021/03/01 06:19:56;;;;;;;21.38;9.23;;;4.20;98.90;;;;;;5044921;28;20033;-77
2021/03/01 06:22:24;;;;;;;18.40;8.48;;;4.10;99.00;;;;;;5044071;28;20045;-79
2021/03/01 06:25:04;;;;;;;17.92;8.93;;;4.10;99.30;;;;;;5061187;28;20033;-77
2021/03/01 06:27:29;;;;;;;20.27;8.98;;;4.10;99.30;;;;;;5048932;28;20032;-76
2021/03/01 06:30:26;;;;;;;21.25;9.45;;;4.00;99.40;;;;;;5050964;28;20044;-76
2021/03/01 06:33:11;;;;;;;17.38;8.15;;;4.00;99.50;;;;;;5042194;28;20452;-77
2021/03/01 06:35:51;;;;;;;17.15;7.57;;;4.00;99.40;;;;;;5049455;28;20068;-75
2021/03/01 06:38:35;;;;;;;17.38;8.40;;;4.10;99.10;;;;;;5048299;28;20045;-77
2021/03/01 06:41:27;;;;;;;16.75;8.38;;;4.10;99.10;;;;;;5054721;28;20025;-77
2021/03/01 06:43:55;;;;;;;17.83;8.65;;;4.20;99.10;;;;;;5043833;28;20095;-76
2021/03/01 06:46:23;;;;;;;15.75;8.27;;;4.20;99.00;;;;;;5054453;28;20044;-77
2021/03/01 06:48:49;;;;;;;17.65;8.48;;;4.30;98.80;;;;;;5047912;28;20049;-76
2021/03/01 06:51:16;;;;;;;19.75;8.88;;;4.30;99.00;;;;;;5042074;28;20052;-78
2021/03/01 06:53:42;;;;;;;18.65;8.52;;;4.30;98.80;;;;;;5042008;28;20048;-76
2021/03/01 06:56:11;;;;;;;17.83;8.43;;;4.30;98.90;;;;;;5032445;28;20029;-76
2021/03/01 06:58:44;;;;;;;16.58;8.25;;;4.20;99.20;;;;;;5036178;28;20475;-76
2021/03/01 07:01:17;;;;;;;17.00;8.30;;;4.30;99.30;;;;;;5035612;28;20034;-76
2021/03/01 07:03:49;;;;;;;15.93;7.75;;;4.20;99.20;;;;;;5038791;28;20402;-75
2021/03/01 07:06:15;;;;;;;17.23;7.78;;;4.40;98.40;;;;;;5034230;28;20045;-77
2021/03/01 07:08:49;;;;;;;18.63;8.63;;;4.40;98.40;;;;;;5037079;28;20076;-76
2021/03/01 07:11:36;;;;;;;19.65;8.55;;;4.40;98.40;;;;;;5031969;28;20131;-76
2021/03/01 07:14:05;;;;;;;16.90;8.43;;;4.60;97.90;;;;;;5033779;28;20040;-76
2021/03/01 07:16:48;;;;;;;17.33;7.82;;;4.60;98.00;;;;;;5033906;28;20045;-77
2021/03/01 07:19:34;;;;;;;17.40;8.60;;;4.60;98.00;;;;;;5035346;28;20091;-76
2021/03/01 07:22:05;;;;;;;19.35;9.15;;;4.80;97.30;;;;;;5031811;28;20132;-75
2021/03/01 07:24:32;;;;;;;17.85;8.65;;;4.70;97.50;;;;;;5026929;28;20037;-75
2021/03/01 07:27:02;;;;;;;15.00;8.30;;;4.60;98.10;;;;;;5032770;28;20120;-77
2021/03/01 07:29:33;;;;;;;18.35;7.97;;;4.70;97.60;;;;;;5036928;28;20036;-75
2021/03/01 07:32:03;;;;;;;14.82;8.05;;;4.70;97.60;;;;;;5016106;28;20045;-76
2021/03/01 07:34:30;;;;;;;17.92;8.35;;;4.80;97.40;;;;;;5037213;28;20029;-76
2021/03/01 07:36:58;;;;;;;16.75;8.88;;;5.00;97.00;;;;;;5021585;28;20175;-79
2021/03/01 07:39:24;;;;;;;16.45;8.35;;;4.90;97.10;;;;;;5030017;28;20071;-75
2021/03/01 07:41:51;;;;;;;15.88;8.05;;;5.10;96.60;;;;;;5010868;28;20037;-76
2021/03/01 07:44:31;;;;;;;14.13;7.53;;;5.20;96.50;;;;;;5034291;28;20025;-75
2021/03/01 07:46:59;;;;;;;14.65;7.75;;;5.30;96.00;;;;;;5034048;28;20071;-76
2021/03/01 07:49:47;;;;;;;15.98;8.23;;;5.30;96.00;;;;;;5039553;28;20033;-76
2021/03/01 07:52:18;;;;;;;17.15;8.13;;;5.20;96.20;;;;;;5035744;28;20115;-75
2021/03/01 07:54:52;;;;;;;17.35;8.30;;;5.40;95.70;;;;;;5034136;28;20415;-74
2021/03/01 07:57:19;;;;;;;19.48;8.95;;;5.40;95.90;;;;;;5035004;28;20071;-75
2021/03/01 07:59:46;;;;;;;15.60;7.85;;;5.50;95.50;;;;;;5033993;28;20053;-74
2021/03/01 08:02:14;;;;;;;17.55;8.40;;;5.60;95.10;;;;;;5032714;28;20033;-76
2021/03/01 08:04:41;;;;;;;17.02;8.35;;;5.60;94.90;;;;;;5028433;28;20633;-75
2021/03/01 08:07:07;;;;;;;14.57;7.97;;;5.70;94.90;;;;;;5035137;28;20037;-77
2021/03/01 08:09:40;;;;;;;16.45;8.35;;;5.80;94.70;;;;;;5035500;28;20030;-76
2021/03/01 08:12:06;;;;;;;20.65;8.10;;;6.70;94.90;;;;;;5035754;28;20059;-76
2021/03/01 08:14:51;;;;;;;17.80;8.80;;;5.80;94.60;;;;;;5032388;28;21132;-76
2021/03/01 08:17:25;;;;;;;16.35;8.55;;;5.90;94.50;;;;;;5036836;28;20055;-75
2021/03/01 08:20:14;;;;;;;13.68;7.40;;;6.00;94.00;;;;;;5035542;28;20041;-77
2021/03/01 08:23:01;;;;;;;16.13;7.75;;;6.20;93.80;;;;;;5029764;28;20033;-76
2021/03/01 08:28:20;;;;;;;14.70;7.72;;;6.60;92.80;;;;;;5037897;28;20247;-76
2021/03/01 08:30:47;;;;;;;14.18;7.25;;;6.60;92.60;;;;;;5034971;28;20060;-76
2021/03/01 08:33:14;;;;;;;14.13;7.35;;;6.70;92.20;;;;;;5031107;28;20078;-74
2021/03/01 08:35:45;;;;;;;15.00;7.68;;;6.80;91.90;;;;;;5036312;28;20091;-76
2021/03/01 08:38:12;;;;;;;13.15;6.90;;;7.80;91.90;;;;;;5031490;28;20065;-75
2021/03/01 08:40:53;;;;;;;15.27;6.97;;;6.80;91.70;;;;;;5027970;28;20131;-77
2021/03/01 08:43:53;;;;;;;14.88;7.30;;;7.00;91.40;;;;;;5037382;28;20045;-76
2021/03/01 08:46:20;;;;;;;14.68;7.28;;;7.10;91.20;;;;;;5042066;28;20033;-76
2021/03/01 08:48:48;;;;;;;15.10;8.38;;;7.40;91.10;;;;;;5035042;28;20048;-75
2021/03/01 08:51:15;;;;;;;15.50;7.45;;;7.30;90.80;;;;;;5036754;28;20047;-75
2021/03/01 08:53:41;;;;;;;12.90;7.70;;;7.40;90.20;;;;;;5033121;28;20078;-76
2021/03/01 08:56:19;;;;;;;14.50;7.38;;;7.50;89.70;;;;;;5033433;28;20513;-75
2021/03/01 08:58:45;;;;;;;13.43;7.18;;;7.60;88.60;;;;;;5032733;28;20555;-76
2021/03/01 09:01:11;;;;;;;12.40;7.35;;;7.70;88.80;;;;;;5035639;28;20036;-76
2021/03/01 09:03:41;;;;;;;13.18;6.63;;;7.70;88.40;;;;;;5037027;28;20505;-76
2021/03/01 09:06:21;;;;;;;11.95;7.22;;;7.80;88.60;;;;;;5039881;28;20037;-76
2021/03/01 09:08:54;;;;;;;12.00;7.07;;;7.80;85.80;;;;;;5040026;28;20087;-77
2021/03/01 09:11:25;;;;;;;12.82;6.65;;;7.90;86.50;;;;;;5036558;28;20034;-79
2021/03/01 09:14:00;;;;;;;14.15;6.97;;;8.00;86.50;;;;;;5038471;28;20039;-76
2021/03/01 09:16:27;;;;;;;12.05;7.57;;;8.10;86.10;;;;;;5034163;28;20036;-76
2021/03/01 09:19:05;;;;;;;11.52;6.70;;;8.30;84.40;;;;;;5033976;28;20494;-76
2021/03/01 09:21:34;;;;;;;12.50;7.05;;;8.40;84.20;;;;;;5038400;28;20033;-77
2021/03/01 09:24:01;;;;;;;14.00;6.50;;;8.50;82.60;;;;;;5040020;28;20029;-75
2021/03/01 09:26:31;;;;;;;13.93;7.18;;;8.60;81.40;;;;;;5043657;28;20037;-76
2021/03/01 09:29:00;;;;;;;14.82;7.07;;;8.70;81.80;;;;;;5042432;28;20032;-76
2021/03/01 09:31:26;;;;;;;12.48;6.95;;;8.90;79.80;;;;;;5041668;28;20033;-76
2021/03/01 09:33:54;;;;;;;9.32;5.90;;;9.00;80.10;;;;;;5044304;28;20036;-77
2021/03/01 09:36:19;;;;;;;12.48;6.72;;;9.10;76.90;;;;;;5039831;28;20094;-76
2021/03/01 09:38:52;;;;;;;11.77;6.65;;;9.20;75.70;;;;;;5041114;28;20041;-76
2021/03/01 09:41:21;;;;;;;12.70;6.38;;;9.20;76.00;;;;;;5045041;28;20668;-75
2021/03/01 09:43:49;;;;;;;12.70;6.75;;;9.10;75.30;;;;;;5042055;28;20129;-76
2021/03/01 09:46:16;;;;;;;12.38;6.65;;;9.20;74.90;;;;;;5037741;28;20577;-77
2021/03/01 09:48:45;;;;;;;17.15;7.15;;;9.30;74.20;;;;;;5040971;28;20066;-77
2021/03/01 09:51:11;;;;;;;13.32;7.15;;;9.30;74.40;;;;;;5036692;28;20965;-79
2021/03/01 09:53:38;;;;;;;13.80;6.60;;;9.40;74.20;;;;;;5054494;28;20052;-76
2021/03/01 09:56:04;;;;;;;9.77;6.30;;;9.60;71.80;;;;;;5038881;28;20032;-76
2021/03/01 09:58:31;;;;;;;11.95;6.47;;;9.60;72.10;;;;;;5035418;28;20046;-77
2021/03/01 10:01:15;;;;;;;11.50;6.43;;;9.70;72.90;;;;;;5044804;28;20049;-77
2021/03/01 10:03:49;;;;;;;12.32;6.10;;;9.80;71.30;;;;;;5045521;28;20030;-76
2021/03/01 10:06:17;;;;;;;13.88;7.20;;;10.00;70.30;;;;;;5033243;28;20127;-77
2021/03/01 10:08:44;;;;;;;12.65;6.85;;;10.00;69.80;;;;;;5053975;28;20576;-77
2021/03/01 10:11:21;;;;;;;10.05;6.05;;;10.10;68.70;;;;;;5043999;28;20037;-79
2021/03/01 10:13:48;;;;;;;12.10;6.60;;;10.10;67.90;;;;;;5054997;28;20040;-76
2021/03/01 10:16:15;;;;;;;14.05;6.57;;;10.10;67.30;;;;;;5047936;28;20686;-76
2021/03/01 10:18:40;;;;;;;12.90;6.70;;;9.90;67.60;;;;;;5048720;28;20048;-76
2021/03/01 10:21:07;;;;;;;13.00;7.10;;;10.00;68.60;;;;;;5033614;28;20633;-75
2021/03/01 10:23:39;;;;;;;13.15;6.60;;;11.20;68.50;;;;;;5045316;28;20060;-76
2021/03/01 10:26:18;;;;;;;13.73;6.22;;;10.30;66.90;;;;;;5046187;28;20520;-78
2021/03/01 10:28:58;;;;;;;16.02;6.80;;;10.50;64.70;;;;;;5045840;28;20029;-77
2021/03/01 10:31:36;;;;;;;11.80;6.57;;;10.40;63.60;;;;;;5049756;28;20102;-77
2021/03/01 10:34:04;;;;;;;12.13;6.50;;;10.50;63.60;;;;;;5042691;28;20301;-78
2021/03/01 10:36:52;;;;;;;11.68;6.03;;;10.60;61.20;;;;;;5041451;28;20568;-77
2021/03/01 10:39:23;;;;;;;13.98;6.72;;;10.60;60.60;;;;;;5042328;28;20041;-76
2021/03/01 10:42:12;;;;;;;;;;;10.70;61.60;;;;;;5043425;28;20071;-76
2021/03/01 10:44:59;;;;;;;10.00;6.10;;;10.80;60.70;;;;;;5040672;28;19967;-76
2021/03/01 10:47:33;;;;;;;13.13;6.45;;;10.90;60.30;;;;;;5036343;28;20038;-75
2021/03/01 10:49:59;;;;;;;11.88;6.30;;;11.10;60.10;;;;;;5042746;28;20038;-78
2021/03/01 10:52:27;;;;;;;10.32;5.97;;;11.20;59.00;;;;;;5040720;28;20124;-77
2021/03/01 10:54:54;;;;;;;10.90;5.82;;;11.40;58.90;;;;;;5038943;28;20057;-75
2021/03/01 10:57:22;;;;;;;15.00;6.18;;;11.50;57.10;;;;;;5030727;28;20029;-77
2021/03/01 10:59:51;;;;;;;11.77;6.40;;;11.70;56.40;;;;;;5032487;28;20042;-77
2021/03/01 11:02:17;;;;;;;9.85;6.00;;;11.40;55.80;;;;;;5039418;28;20686;-78
2021/03/01 11:04:43;;;;;;;10.32;5.50;;;11.30;56.70;;;;;;5040815;28;20037;-76
2021/03/01 11:07:09;;;;;;;9.65;5.70;;;11.40;56.70;;;;;;5050846;28;20039;-77
2021/03/01 11:09:34;;;;;;;10.60;5.45;;;11.50;56.10;;;;;;5043825;28;20033;-77
2021/03/01 11:12:00;;;;;;;10.63;6.13;;;11.70;56.00;;;;;;5039018;28;20105;-76
2021/03/01 11:14:26;;;;;;;11.27;6.20;;;11.80;56.50;;;;;;5024857;28;20534;-78
2021/03/01 11:16:55;;;;;;;11.80;6.10;;;11.90;54.00;;;;;;5038048;28;20038;-76
2021/03/01 11:19:21;;;;;;;10.40;5.82;;;12.20;52.80;;;;;;5043357;28;20055;-76
2021/03/01 11:21:48;;;;;;;9.32;5.93;;;12.50;52.60;;;;;;5035900;28;20037;-76
2021/03/01 11:24:14;;;;;;;10.95;6.53;;;13.00;51.40;;;;;;5039018;28;20071;-75
2021/03/01 11:26:39;;;;;;;11.25;6.60;;;13.20;51.50;;;;;;5036825;28;20498;-77
2021/03/01 11:29:05;;;;;;;10.10;5.82;;;13.40;51.40;;;;;;5040129;28;20068;-77
2021/03/01 11:31:33;;;;;;;11.40;6.38;;;13.40;49.70;;;;;;5025269;28;20041;-76
2021/03/01 11:34:03;;;;;;;10.88;6.28;;;13.70;50.50;;;;;;5040460;28;20409;-77
2021/03/01 11:36:29;;;;;;;9.38;5.95;;;13.70;51.00;;;;;;5044002;28;20065;-77
2021/03/01 11:38:56;;;;;;;14.07;7.82;;;13.40;50.70;;;;;;5044744;28;20045;-75
2021/03/01 11:41:22;;;;;;;10.77;6.60;;;13.30;52.10;;;;;;5047996;28;20079;-76
2021/03/01 11:43:51;;;;;;;11.45;6.72;;;13.20;52.10;;;;;;5041718;28;20073;-76
2021/03/01 11:46:17;;;;;;;10.32;6.15;;;13.00;52.80;;;;;;5041530;28;20021;-77
2021/03/01 11:48:44;;;;;;;12.65;6.72;;;12.90;53.10;;;;;;5042745;28;20045;-77
2021/03/01 11:51:12;;;;;;;10.98;6.50;;;13.00;53.30;;;;;;5031466;28;20336;-75
2021/03/01 11:53:39;;;;;;;13.48;6.35;;;13.00;53.30;;;;;;5047473;28;20490;-75
2021/03/01 11:56:09;;;;;;;11.52;6.10;;;13.00;52.80;;;;;;5038181;28;20033;-78
2021/03/01 11:58:38;;;;;;;11.23;6.10;;;13.00;52.70;;;;;;5045974;28;20041;-75
2021/03/01 12:01:05;;;;;;;9.73;5.53;;;12.90;52.50;;;;;;5034914;28;20038;-76
2021/03/01 12:03:31;;;;;;;9.90;5.45;;;14.50;53.20;;;;;;5040833;28;20123;-76
2021/03/01 12:05:57;;;;;;;10.95;5.47;;;13.00;51.30;;;;;;5038043;28;22422;-77
2021/03/01 12:08:23;;;;;;;9.57;5.68;;;13.10;51.30;;;;;;5045258;28;20044;-77
2021/03/01 12:10:48;;;;;;;11.15;5.65;;;13.20;51.40;;;;;;5033323;28;20083;-76
2021/03/01 12:13:14;;;;;;;10.52;5.78;;;13.40;51.20;;;;;;5043956;28;20489;-77
2021/03/01 12:15:39;;;;;;;11.27;6.50;;;13.40;51.00;;;;;;5041644;28;20041;-76
2021/03/01 12:18:06;;;;;;;15.13;5.88;;;13.40;51.20;;;;;;5035984;28;20132;-77
2021/03/01 12:20:32;;;;;;;10.32;5.72;;;13.30;50.10;;;;;;5025912;28;20128;-78
2021/03/01 12:22:57;;;;;;;9.05;5.07;;;13.30;50.40;;;;;;5047951;28;20076;-76
2021/03/01 12:25:23;;;;;;;8.60;5.60;;;13.50;50.60;;;;;;5024688;28;20040;-77
2021/03/01 12:27:49;;;;;;;9.30;5.90;;;13.60;50.40;;;;;;5040822;28;20518;-77
2021/03/01 12:30:16;;;;;;;10.05;5.80;;;13.60;50.20;;;;;;5043320;28;20037;-77
2021/03/01 12:32:42;;;;;;;8.63;5.22;;;13.60;50.50;;;;;;5035664;28;20075;-78
2021/03/01 12:35:08;;;;;;;7.97;4.70;;;13.60;50.10;;;;;;5038483;28;20566;-78
2021/03/01 12:37:34;;;;;;;7.93;4.97;;;13.70;48.90;;;;;;5044323;28;20085;-78
2021/03/01 12:40:00;;;;;;;8.10;4.60;;;13.80;48.80;;;;;;5049806;28;20037;-77
2021/03/01 12:42:26;;;;;;;8.02;4.40;;;14.00;47.20;;;;;;5048337;28;20044;-77
2021/03/01 12:44:52;;;;;;;8.98;4.80;;;14.00;47.60;;;;;;5051328;28;20112;-77
2021/03/01 12:47:18;;;;;;;7.78;4.72;;;14.20;46.80;;;;;;5042258;28;20041;-76
2021/03/01 12:49:44;;;;;;;6.65;3.70;;;14.30;45.20;;;;;;5042453;28;20108;-77
2021/03/01 12:52:10;;;;;;;7.60;4.38;;;14.30;43.80;;;;;;5027786;28;20053;-75
2021/03/01 12:54:36;;;;;;;8.57;5.03;;;;;;;;;;5051282;28;20033;-75
2021/03/01 12:57:02;;;;;;;7.72;5.07;;;14.50;45.20;;;;;;5045852;28;20409;-76
2021/03/01 12:59:27;;;;;;;8.77;4.43;;;14.60;45.30;;;;;;5040642;28;20021;-77